Time;durP1;ratioP1;P1;durP2;ratioP2;P2;SDS_P1;SDS_P2;PMS_P1;PMS_P2;Temp;Humidity;BMP_temperature;BMP_pressure;BME280_temperature;BME280_humidity;BME280_pressure;Samples;Min_cycle;Max_cycle;Signal;HPM_P1;HPM_P2
2023/03/19 00:00:34;;;;;;;;;22.00;17.50;;;;;6.06;66.71;101683.25;146639;569;44021;-75
2023/03/19 00:03:38;;;;;;;;;26.75;24.75;;;;;6.07;66.69;101695.34;146634;589;45916;-71
2023/03/19 00:06:39;;;;;;;;;13.50;13.00;;;;;6.06;66.43;101694.44;146637;591;45012;-72
2023/03/19 00:09:40;;;;;;;;;9.00;9.00;;;;;6.01;66.61;101695.72;146628;595;45916;-72
2023/03/19 00:12:45;;;;;;;;;10.00;8.75;;;;;5.12;67.05;101541.47;146624;608;45020;-73
2023/03/19 00:15:46;;;;;;;;;12.75;8.25;;;;;6.03;66.93;101694.19;146623;577;45917;-73
2023/03/19 00:18:40;;;;;;;;;12.00;11.50;;;;;6.08;67.31;101690.34;146624;626;45020;-73
2023/03/19 00:21:32;;;;;;;;;14.75;13.25;;;;;6.05;65.99;101684.94;146622;588;45017;-73
2023/03/19 00:24:30;;;;;;;;;12.00;10.00;;;;;5.96;67.22;101691.88;146620;602;45020;-72
2023/03/19 00:27:36;;;;;;;;;12.75;10.50;;;;;5.85;67.36;101682.28;146622;613;45014;-72
2023/03/19 00:30:37;;;;;;;;;11.75;10.00;;;;;5.76;67.10;101677.25;146625;577;46012;-71
2023/03/19 00:33:29;;;;;;;;;13.25;12.00;;;;;5.68;68.53;101674.03;146713;576;46014;-71
2023/03/19 00:36:39;;;;;;;;;11.75;10.00;;;;;5.64;68.06;101682.28;146623;617;45016;-72
2023/03/19 00:39:36;;;;;;;;;17.25;12.75;;;;;5.59;68.76;101668.09;146626;587;45029;-71
2023/03/19 00:42:44;;;;;;;;;;;;;;;;;;;;;
2023/03/19 00:45:51;;;;;;;;;16.00;12.50;;;;;5.55;69.04;101677.22;146624;564;45021;-70
2023/03/19 00:48:57;;;;;;;;;16.00;13.00;;;;;5.46;68.98;101676.44;146620;636;45036;-69
2023/03/19 00:51:57;;;;;;;;;17.50;16.00;;;;;5.42;69.33;101666.66;146625;584;45020;-73
2023/03/19 00:54:52;;;;;;;;;15.25;14.00;;;;;5.49;70.17;101675.81;146619;588;45017;-73
2023/03/19 00:57:56;;;;;;;;;16.25;11.75;;;;;5.52;69.08;101678.66;146625;606;45020;-72
2023/03/19 01:00:58;;;;;;;;;16.50;11.50;;;;;5.51;68.87;101672.59;146623;652;45016;-72
2023/03/19 01:03:52;;;;;;;;;18.75;15.75;;;;;5.43;68.52;101655.59;146624;650;45020;-74
2023/03/19 01:07:02;;;;;;;;;15.25;14.75;;;;;5.33;69.48;101661.63;146623;703;45016;-72
2023/03/19 01:10:06;;;;;;;;;25.75;25.25;;;;;4.44;70.36;101498.75;146624;641;45021;-73
2023/03/19 01:13:12;;;;;;;;;17.00;15.75;;;;;5.35;69.71;101655.69;146621;685;45912;-74
2023/03/19 01:16:12;;;;;;;;;19.00;16.75;;;;;5.26;69.88;101654.09;146625;651;45020;-73
2023/03/19 01:19:14;;;;;;;;;18.00;14.75;;;;;5.25;70.71;101654.88;146619;590;45912;-73
2023/03/19 01:22:18;;;;;;;;;21.75;16.50;;;;;5.32;70.03;101651.19;146626;652;45020;-71
2023/03/19 01:25:32;;;;;;;;;14.00;13.25;;;;;5.39;70.10;101648.38;146620;581;46914;-73
2023/03/19 01:28:28;;;;;;;;;19.25;16.50;;;;;5.44;70.07;101647.09;146625;563;45020;-73
2023/03/19 01:31:27;;;;;;;;;18.00;14.00;;;;;5.50;69.95;101654.44;146622;569;45911;-74
2023/03/19 01:34:40;;;;;;;;;14.00;11.75;;;;;5.49;69.68;101642.38;146625;582;45020;-72
2023/03/19 01:37:47;;;;;;;;;20.00;16.50;;;;;5.51;70.11;101653.66;146621;602;45021;-73
2023/03/19 01:40:52;;;;;;;;;18.00;13.25;;;;;4.28;69.47;101447.72;146623;570;46010;-78
2023/03/19 01:43:45;;;;;;;;;13.00;12.00;;;;;5.43;70.38;101657.28;146621;563;45910;-77
2023/03/19 01:46:45;;;;;;;;;14.50;11.50;;;;;5.37;70.03;101647.34;146623;802;45021;-72
2023/03/19 01:49:44;;;;;;;;;13.50;12.50;;;;;5.39;70.10;101648.38;146619;615;45016;-73
2023/03/19 01:52:59;;;;;;;;;17.00;13.75;;;;;4.31;70.01;101452.22;146624;570;45020;-72
2023/03/19 01:56:02;;;;;;;;;15.25;12.25;;;;;5.46;69.80;101654.97;146620;634;45910;-69
2023/03/19 01:59:15;;;;;;;;;19.50;18.25;;;;;5.52;70.49;101655.50;146623;619;45020;-74
2023/03/19 02:03:02;;;;;;;;;16.75;14.25;;;;;4.55;70.15;101462.06;146622;576;45017;-72
2023/03/19 02:06:33;;;;;;;;;16.75;12.50;;;;;5.69;69.99;101652.69;146626;571;45020;-72
2023/03/19 02:09:29;;;;;;;;;18.25;14.00;;;;;5.73;70.22;101657.34;146621;582;46012;-74
2023/03/19 02:12:25;;;;;;;;;15.50;13.75;;;;;5.73;69.84;101653.84;146624;587;45020;-69
2023/03/19 02:15:35;;;;;;;;;18.25;15.50;;;;;5.73;70.17;101652.19;146621;572;45912;-70
2023/03/19 02:18:47;;;;;;;;;17.25;15.25;;;;;5.73;70.49;101653.84;146624;596;45020;-69
2023/03/19 02:21:40;;;;;;;;;18.50;15.25;;;;;5.72;70.59;101652.94;146616;629;45913;-71
2023/03/19 02:25:21;;;;;;;;;18.25;14.00;;;;;4.51;70.18;101435.97;146623;725;45021;-73
2023/03/19 02:28:22;;;;;;;;;17.00;13.75;;;;;5.70;70.99;101649.34;146621;629;45016;-74
2023/03/19 02:31:17;;;;;;;;;16.75;13.50;;;;;5.74;71.45;101655.66;146624;575;45021;-74
2023/03/19 02:34:46;;;;;;;;;19.50;16.25;;;;;3.81;71.08;101303.31;146614;590;45016;-75
2023/03/19 02:37:40;;;;;;;;;17.00;14.00;;;;;5.87;71.35;101648.19;146618;566;45021;-75
2023/03/19 02:40:47;;;;;;;;;16.50;11.75;;;;;5.94;71.20;101645.41;146616;638;45017;-76
2023/03/19 02:43:41;;;;;;;;;15.00;11.50;;;;;6.03;72.36;101652.09;146618;581;45020;-69
2023/03/19 02:46:35;;;;;;;;;18.50;16.00;;;;;6.13;73.47;101652.09;146613;641;45017;-71
2023/03/19 02:49:30;;;;;;;;;20.75;19.50;;;;;6.22;73.53;101656.34;146615;602;46012;-70
2023/03/19 02:52:39;;;;;;;;;14.75;12.50;;;;;6.35;73.29;101658.25;146616;572;45017;-74
2023/03/19 02:55:46;;;;;;;;;14.75;14.25;;;;;6.46;72.90;101659.16;146617;570;45029;-74
2023/03/19 02:58:54;;;;;;;;;13.00;12.25;;;;;5.29;71.03;101435.81;146615;637;45016;-74
2023/03/19 03:02:04;;;;;;;;;16.00;11.00;;;;;6.62;71.20;101658.72;146618;594;45021;-74
2023/03/19 03:05:17;;;;;;;;;14.50;11.00;;;;;6.67;70.58;101660.03;146616;595;45016;-74
2023/03/19 03:08:31;;;;;;;;;;;;;;;;;;;;;
2023/03/19 03:11:40;;;;;;;;;13.75;9.50;;;;;6.58;68.97;101659.25;146616;586;45021;-76
2023/03/19 03:14:41;;;;;;;;;9.75;7.75;;;;;6.54;69.62;101663.28;146625;594;45021;-74
2023/03/19 03:17:36;;;;;;;;;8.00;7.75;;;;;6.51;69.57;101659.50;146621;563;46012;-75
2023/03/19 03:20:33;;;;;;;;;9.25;8.25;;;;;6.50;69.65;101665.47;146626;605;45020;-77
2023/03/19 03:23:46;;;;;;;;;8.50;8.00;;;;;6.51;69.77;101669.81;146622;569;46013;-76
2023/03/19 03:26:43;;;;;;;;;10.50;8.00;;;;;6.48;69.54;101666.25;146626;661;45020;-76
2023/03/19 03:29:44;;;;;;;;;9.75;9.75;;;;;6.45;69.23;101671.13;146621;612;45016;-77
2023/03/19 03:32:53;;;;;;;;;;;;;;;;;;;;;
2023/03/19 03:36:18;;;;;;;;;10.00;10.00;;;;;5.28;69.23;101469.12;146626;618;45018;-70
2023/03/19 03:39:14;;;;;;;;;10.50;9.25;;;;;6.39;69.41;101662.00;146625;569;45020;-73
2023/03/19 03:42:20;;;;;;;;;15.50;11.50;;;;;6.35;69.96;101665.09;146627;579;45016;-73
2023/03/19 03:45:25;;;;;;;;;10.25;9.75;;;;;6.30;69.83;101668.97;146623;602;45021;-73
2023/03/19 03:48:18;;;;;;;;;9.50;8.50;;;;;6.27;70.13;101664.47;146627;572;45914;-74
2023/03/19 03:51:17;;;;;;;;;7.50;6.25;;;;;6.23;69.87;101662.38;146631;627;45021;-74
2023/03/19 03:54:21;;;;;;;;;6.00;6.00;;;;;6.18;70.15;101662.00;146630;604;45017;-73
2023/03/19 03:57:26;;;;;;;;;12.25;10.50;;;;;6.15;70.10;101659.19;146630;571;45020;-73
2023/03/19 04:00:36;;;;;;;;;11.75;10.00;;;;;6.13;70.52;101658.13;146619;572;46014;-73
2023/03/19 04:03:50;;;;;;;;;;;;;;;;;;;;;
2023/03/19 04:06:58;;;;;;;;;21.00;20.75;;;;;4.97;70.14;101447.63;146619;608;46911;-72
2023/03/19 04:10:22;;;;;;;;;20.50;19.25;;;;;6.23;70.92;101659.81;146625;574;45020;-74
2023/03/19 04:13:35;;;;;;;;;;;;;;;;;;;;;
2023/03/19 04:16:38;;;;;;;;;10.25;8.25;;;;;6.40;70.17;101662.12;146624;574;45023;-73
2023/03/19 04:19:39;;;;;;;;;7.25;7.25;;;;;6.48;70.43;101658.50;146630;586;45016;-74
2023/03/19 04:22:36;;;;;;;;;6.75;5.25;;;;;6.55;70.05;101665.06;146634;591;45021;-71
2023/03/19 04:25:52;;;;;;;;;9.25;7.75;;;;;6.63;69.89;101661.41;146627;598;45029;-72
2023/03/19 04:29:01;;;;;;;;;14.50;10.75;;;;;6.70;69.15;101673.16;146631;641;45021;-72
2023/03/19 04:31:55;;;;;;;;;6.25;6.25;;;;;6.74;69.01;101680.34;146621;601;45912;-71
2023/03/19 04:35:03;;;;;;;;;6.50;6.25;;;;;6.77;68.95;101679.72;146631;616;45020;-72
2023/03/19 04:38:07;;;;;;;;;9.25;8.00;;;;;6.75;68.51;101691.56;146629;582;45017;-73
2023/03/19 04:41:15;;;;;;;;;11.00;7.25;;;;;6.68;68.18;101685.00;146631;589;45020;-73
2023/03/19 04:44:36;;;;;;;;;8.00;5.25;;;;;6.62;68.05;101694.81;146628;570;45911;-72
2023/03/19 04:47:37;;;;;;;;;8.75;5.25;;;;;6.59;68.56;101694.56;146633;639;45020;-71
2023/03/19 04:50:30;;;;;;;;;7.00;6.50;;;;;6.58;68.65;101698.81;146628;580;45915;-71
2023/03/19 04:53:39;;;;;;;;;7.50;7.25;;;;;6.56;68.72;101697.78;146628;611;45021;-69
2023/03/19 04:56:46;;;;;;;;;7.50;7.00;;;;;6.54;68.42;101695.84;146620;588;47915;-69
2023/03/19 04:59:52;;;;;;;;;11.00;9.25;;;;;5.17;68.11;101460.50;146631;609;45021;-69
2023/03/19 05:02:51;;;;;;;;;9.00;7.00;;;;;6.47;68.64;101700.47;146628;591;45914;-69
2023/03/19 05:05:51;;;;;;;;;9.00;8.00;;;;;6.46;68.86;101711.56;146629;659;48010;-69
2023/03/19 05:08:49;;;;;;;;;12.25;12.25;;;;;6.46;69.08;101718.41;146626;598;45016;-68
2023/03/19 05:11:55;;;;;;;;;27.75;25.00;;;;;6.66;70.04;101725.22;146624;566;46010;-68
2023/03/19 05:14:52;;;;;;;;;16.00;14.50;;;;;7.50;68.19;101726.88;146616;581;47915;-69
2023/03/19 05:17:58;;;;;;;;;13.75;12.25;;;;;7.49;70.35;101526.38;146624;695;45031;-69
2023/03/19 05:21:05;;;;;;;;;13.50;11.50;;;;;9.78;64.64;101712.06;146621;585;45912;-69
2023/03/19 05:24:01;;;;;;;;;14.00;10.75;;;;;10.82;62.78;101718.28;146624;565;46020;-69
2023/03/19 05:27:01;;;;;;;;;13.25;9.75;;;;;11.88;57.34;101723.38;146619;618;46012;-69
2023/03/19 05:29:59;;;;;;;;;14.25;12.00;;;;;12.62;52.14;101727.84;146628;599;46010;-68
2023/03/19 05:33:04;;;;;;;;;12.00;11.00;;;;;13.00;50.24;101727.44;146619;603;45016;-69
2023/03/19 05:36:16;;;;;;;;;9.75;8.75;;;;;13.16;49.96;101724.91;146617;591;45020;-68
2023/03/19 05:39:16;;;;;;;;;11.00;9.00;;;;;13.26;49.19;101731.56;146623;607;45016;-70
2023/03/19 05:42:16;;;;;;;;;16.00;14.00;;;;;13.22;49.12;101739.97;146623;598;45020;-69
2023/03/19 05:45:43;;;;;;;;;;;;;;;;;;;;;
2023/03/19 05:48:51;;;;;;;;;;;;;;;;;;;;;
2023/03/19 05:51:53;;;;;;;;;17.00;15.00;;;;;12.12;50.95;101742.19;146614;592;45913;-70
2023/03/19 05:55:17;;;;;;;;;;;;;;;;;;;;;
2023/03/19 05:58:17;;;;;;;;;25.50;23.25;;;;;11.58;53.92;101756.09;146615;602;45018;-71
2023/03/19 06:01:21;;;;;;;;;22.75;18.50;;;;;11.52;54.88;101760.91;146617;581;45020;-71
2023/03/19 06:04:13;;;;;;;;;23.50;22.75;;;;;11.49;55.47;101756.41;146613;600;45915;-72
2023/03/19 06:07:09;;;;;;;;;40.25;34.00;;;;;11.48;55.84;101758.91;146617;616;45021;-73
2023/03/19 06:10:15;;;;;;;;;20.00;19.00;;;;;9.57;56.65;101436.09;146613;577;45914;-72
2023/03/19 06:13:07;;;;;;;;;16.75;14.25;;;;;11.37;56.43;101762.50;146616;666;45021;-73
2023/03/19 06:16:03;;;;;;;;;18.50;15.75;;;;;11.30;57.76;101753.44;146616;569;45016;-72
2023/03/19 06:18:57;;;;;;;;;17.50;16.50;;;;;11.41;57.17;101757.62;146615;609;45020;-72
2023/03/19 06:22:03;;;;;;;;;14.75;13.75;;;;;11.32;56.05;101762.22;146613;612;45915;-74
2023/03/19 06:25:06;;;;;;;;;15.25;12.50;;;;;11.11;57.13;101766.91;146611;644;45020;-73
2023/03/19 06:28:07;;;;;;;;;14.75;12.50;;;;;10.88;58.35;101764.50;146614;576;45915;-73
2023/03/19 06:30:59;;;;;;;;;17.50;14.75;;;;;10.76;60.03;101765.47;146616;586;46010;-74
2023/03/19 06:34:04;;;;;;;;;12.25;10.00;;;;;9.91;59.22;101613.69;146622;570;45914;-75
2023/03/19 06:36:57;;;;;;;;;12.75;12.25;;;;;11.02;58.09;101774.97;146623;575;45021;-74
2023/03/19 06:40:28;;;;;;;;;;;;;;;;;;;;;
2023/03/19 06:43:36;;;;;;;;;13.00;11.50;;;;;11.65;58.50;101776.47;146624;577;45021;-74
2023/03/19 06:46:38;;;;;;;;;16.25;12.25;;;;;12.04;54.15;101769.41;146621;604;45016;-72
2023/03/19 06:49:40;;;;;;;;;15.25;12.75;;;;;12.27;54.53;101786.41;146624;635;45020;-72
2023/03/19 06:52:43;;;;;;;;;19.25;12.50;;;;;12.53;54.60;101776.72;146620;659;45912;-71
2023/03/19 06:55:41;;;;;;;;;18.00;15.00;;;;;12.82;53.81;101786.25;146617;578;46010;-72
2023/03/19 06:58:47;;;;;;;;;11.75;9.25;;;;;13.05;53.08;101788.50;146620;628;45913;-74
2023/03/19 07:01:47;;;;;;;;;15.00;14.00;;;;;13.20;52.35;101780.66;146624;653;45020;-74
2023/03/19 07:05:02;;;;;;;;;8.75;7.50;;;;;12.33;53.26;101625.53;146620;581;45912;-75
2023/03/19 07:08:00;;;;;;;;;6.75;6.25;;;;;13.18;53.39;101771.88;146625;687;45020;-74
2023/03/19 07:11:00;;;;;;;;;4.50;4.50;;;;;13.24;53.72;101772.22;146621;565;45915;-72
2023/03/19 07:14:03;;;;;;;;;10.50;7.00;;;;;13.28;53.26;101769.00;146622;578;45021;-71
2023/03/19 07:17:15;;;;;;;;;8.75;7.25;;;;;13.39;53.63;101773.13;146621;670;45016;-74
2023/03/19 07:20:35;;;;;;;;;;;;;;;;;;;;;
2023/03/19 07:23:36;;;;;;;;;6.00;6.00;;;;;13.47;51.89;101781.38;146620;565;45912;-70
2023/03/19 07:26:57;;;;;;;;;9.75;7.50;;;;;13.44;53.44;101772.47;146619;584;46010;-70
2023/03/19 07:29:54;;;;;;;;;8.25;8.00;;;;;13.57;53.12;101777.56;146616;669;45898;-71
2023/03/19 07:32:53;;;;;;;;;10.00;8.50;;;;;13.68;51.78;101770.34;146624;569;45020;-71
2023/03/19 07:35:48;;;;;;;;;13.50;12.00;;;;;13.71;53.17;101766.22;146621;567;45915;-72
2023/03/19 07:38:48;;;;;;;;;15.25;11.00;;;;;12.97;51.44;101614.44;146617;577;45020;-70
2023/03/19 07:41:47;;;;;;;;;9.50;7.50;;;;;13.95;52.72;101761.41;146614;653;45910;-70
2023/03/19 07:44:52;;;;;;;;;;;;;;;;;;;;;
2023/03/19 07:48:03;;;;;;;;;9.00;8.00;;;;;14.16;52.44;101763.38;146619;597;45910;-71
2023/03/19 07:51:09;;;;;;;;;;;;;;;;;;;;;
2023/03/19 07:54:17;;;;;;;;;7.50;7.00;;;;;14.44;52.60;101760.53;146622;678;45912;-70
2023/03/19 07:57:28;;;;;;;;;;;;;;;;;;;;;
2023/03/19 08:00:26;;;;;;;;;14.25;11.00;;;;;14.77;49.73;101764.00;146622;620;45910;-71
2023/03/19 08:03:21;;;;;;;;;10.00;7.75;;;;;14.89;50.58;101753.25;146616;644;46013;-73
2023/03/19 08:06:20;;;;;;;;;10.00;8.75;;;;;15.04;49.07;101748.81;146621;654;45912;-77
2023/03/19 08:09:27;;;;;;;;;9.75;7.25;;;;;15.08;48.74;101753.38;146621;656;45020;-76
2023/03/19 08:12:30;;;;;;;;;11.25;9.00;;;;;15.08;49.69;101757.69;146621;683;45913;-78
2023/03/19 08:15:44;;;;;;;;;7.75;6.75;;;;;15.19;51.22;101757.41;146624;589;45020;-73
2023/03/19 08:18:52;;;;;;;;;9.25;8.00;;;;;15.43;49.75;101755.06;146622;705;45912;-71
2023/03/19 08:21:55;;;;;;;;;10.00;9.25;;;;;15.56;49.17;101760.91;146623;569;45021;-71
2023/03/19 08:25:10;;;;;;;;;7.50;7.25;;;;;15.71;49.73;101753.81;146622;640;45016;-72
2023/03/19 08:28:25;;;;;;;;;10.75;8.00;;;;;15.89;47.88;101759.00;146609;595;46034;-70
2023/03/19 08:32:04;;;;;;;;;12.00;9.25;;;;;14.74;50.49;101532.37;146618;670;45912;-73
2023/03/19 08:35:08;;;;;;;;;10.25;8.25;;;;;16.15;46.40;101752.31;146640;672;44020;-72
2023/03/19 08:38:09;;;;;;;;;11.50;9.75;;;;;16.09;46.97;101754.66;146637;595;45912;-76
2023/03/19 08:41:25;;;;;;;;;12.00;11.75;;;;;16.12;48.11;101752.19;146639;599;44020;-75
2023/03/19 08:44:21;;;;;;;;;10.50;8.25;;;;;16.10;46.61;101745.97;146636;564;45912;-73
2023/03/19 08:47:23;;;;;;;;;7.50;7.50;;;;;16.10;46.26;101743.38;146638;675;45020;-74
2023/03/19 08:50:30;;;;;;;;;11.50;8.75;;;;;16.07;45.63;101749.34;146636;595;44913;-72
2023/03/19 08:53:29;;;;;;;;;10.75;9.00;;;;;16.01;45.04;101754.34;146632;658;45912;-74
2023/03/19 08:56:23;;;;;;;;;10.00;9.00;;;;;15.99;46.24;101755.09;146636;573;45013;-74
2023/03/19 08:59:30;;;;;;;;;8.50;8.50;;;;;15.18;46.96;101598.84;146638;644;44029;-72
2023/03/19 09:02:26;;;;;;;;;8.75;8.00;;;;;16.14;46.30;101746.22;146637;596;45912;-73
2023/03/19 09:05:25;;;;;;;;;11.00;9.00;;;;;16.17;45.21;101743.72;146639;671;44021;-74
2023/03/19 09:08:37;;;;;;;;;7.75;7.75;;;;;16.27;47.34;101739.78;146632;569;46001;-73
2023/03/19 09:11:36;;;;;;;;;10.75;9.25;;;;;16.39;47.62;101749.91;146638;670;44021;-70
2023/03/19 09:14:29;;;;;;;;;11.25;10.50;;;;;16.56;47.18;101741.06;146635;577;45914;-69
2023/03/19 09:17:33;;;;;;;;;12.00;10.00;;;;;16.78;45.88;101726.28;146629;612;45050;-73
2023/03/19 09:20:39;;;;;;;;;10.00;8.00;;;;;16.81;45.41;101736.91;146636;709;44017;-73
2023/03/19 09:23:41;;;;;;;;;11.25;8.00;;;;;15.29;44.48;101483.47;146637;569;44029;-71
2023/03/19 09:26:33;;;;;;;;;11.75;10.25;;;;;16.72;45.04;101729.50;146637;617;44911;-73
2023/03/19 09:29:44;;;;;;;;;8.75;8.75;;;;;16.79;43.84;101712.34;146635;577;45046;-74
2023/03/19 09:32:49;;;;;;;;;7.75;6.75;;;;;16.83;42.47;101706.44;146630;634;45017;-73
2023/03/19 09:35:56;;;;;;;;;10.25;9.00;;;;;16.80;43.68;101703.69;146623;569;46020;-74
2023/03/19 09:39:18;;;;;;;;;9.25;9.25;;;;;16.89;46.17;101711.03;146620;658;45910;-72
2023/03/19 09:42:59;;;;;;;;;13.50;10.00;;;;;17.11;46.84;101705.84;146624;620;45021;-73
2023/03/19 09:46:05;;;;;;;;;11.00;8.00;;;;;17.39;44.97;101693.81;146621;585;45016;-74
2023/03/19 09:49:27;;;;;;;;;11.50;10.00;;;;;17.59;45.40;101695.47;146624;722;45020;-74
2023/03/19 09:53:10;;;;;;;;;18.75;13.00;;;;;16.49;42.23;101469.38;146620;635;45908;-73
2023/03/19 09:56:23;;;;;;;;;14.50;11.25;;;;;17.82;43.60;101682.34;146624;641;45023;-74
2023/03/19 09:59:32;;;;;;;;;;;;;;;;;;;;;
2023/03/19 10:03:01;;;;;;;;;15.50;11.75;;;;;18.19;47.73;101687.19;146616;611;45022;-75
2023/03/19 10:06:34;;;;;;;;;11.25;8.75;;;;;17.62;45.17;101537.34;146619;609;45908;-73
2023/03/19 10:10:07;;;;;;;;;12.75;10.00;;;;;16.97;44.81;101398.72;146623;571;45020;-73
2023/03/19 10:13:59;;;;;;;;;9.25;9.25;;;;;18.46;41.60;101625.12;146619;635;46012;-73
2023/03/19 10:17:25;;;;;;;;;12.00;10.25;;;;;18.76;41.76;101666.44;146625;690;45020;-75
2023/03/19 10:21:09;;;;;;;;;11.00;10.00;;;;;17.45;43.35;101437.13;146619;571;45908;-73
2023/03/19 10:24:32;;;;;;;;;7.00;7.00;;;;;18.86;40.64;101662.38;146621;595;45020;-74
2023/03/19 10:27:37;;;;;;;;;7.75;7.50;;;;;18.91;42.58;101651.16;146620;666;45908;-73
2023/03/19 10:30:33;;;;;;;;;10.50;8.75;;;;;19.00;39.85;101647.91;146624;641;45020;-76
2023/03/19 10:33:55;;;;;;;;;8.00;7.00;;;;;18.95;39.04;101644.28;146617;609;45911;-73
2023/03/19 10:37:35;;;;;;;;;8.00;6.00;;;;;18.87;41.29;101640.50;146612;576;45020;-76
2023/03/19 10:41:30;;;;;;;;;;;;;;;;;;;;;
2023/03/19 10:44:53;;;;;;;;;7.67;7.67;;;;;18.98;41.06;101630.34;146623;595;46012;-72
2023/03/19 10:48:29;;;;;;;;;;;;;;;;;;;;;
2023/03/19 10:51:39;;;;;;;;;6.75;5.25;;;;;19.11;41.11;101619.34;146624;577;45020;-73
2023/03/19 10:54:46;;;;;;;;;10.67;8.67;;;;;19.20;39.28;101611.75;146623;565;45914;-73
2023/03/19 10:58:03;;;;;;;;;11.25;10.25;;;;;17.66;42.61;101322.44;146624;708;45020;-77
2023/03/19 11:01:21;;;;;;;;;9.25;9.00;;;;;19.32;41.37;101600.72;146614;578;45915;-76
2023/03/19 11:04:33;;;;;;;;;;;;;;;;;;;;;
2023/03/19 11:08:18;;;;;;;;;8.00;7.00;;;;;19.43;40.14;101595.75;146621;607;45912;-77
2023/03/19 11:11:54;;;;;;;;;7.50;6.00;;;;;18.03;41.20;101351.59;146611;569;45021;-73
2023/03/19 11:15:08;;;;;;;;;6.75;6.75;;;;;19.60;39.38;101590.13;146621;582;45020;-75
2023/03/19 11:18:29;;;;;;;;;5.67;5.67;;;;;18.89;43.91;101432.09;146626;618;45020;-76
2023/03/19 11:21:47;;;;;;;;;8.75;7.75;;;;;18.86;41.58;101418.88;146619;609;45912;-74
2023/03/19 11:25:18;;;;;;;;;9.00;8.00;;;;;18.51;44.18;101411.69;146624;564;45021;-74
2023/03/19 11:28:28;;;;;;;;;;;;;;;;;;;;;
2023/03/19 11:32:07;;;;;;;;;8.00;7.00;;;;;18.87;41.06;101567.81;146624;586;45021;-76
2023/03/19 11:35:21;;;;;;;;;7.00;6.00;;;;;18.33;41.79;101580.03;146637;566;45908;-74
2023/03/19 11:38:48;;;;;;;;;9.67;7.00;;;;;18.05;42.35;101571.25;146640;573;44021;-74
2023/03/19 11:42:21;;;;;;;;;9.33;8.67;;;;;17.94;43.23;101572.59;146638;709;44017;-73
2023/03/19 11:46:05;;;;;;;;;9.00;8.33;;;;;15.97;42.92;101242.31;146638;575;45010;-73
2023/03/19 11:49:37;;;;;;;;;9.00;8.00;;;;;17.82;44.59;101569.53;146636;579;45891;-75
2023/03/19 11:53:04;;;;;;;;;6.00;6.00;;;;;17.76;45.18;101555.34;146639;612;44020;-73
2023/03/19 11:56:26;;;;;;;;;5.33;5.33;;;;;17.87;43.90;101553.13;146637;581;45910;-73
2023/03/19 11:59:53;;;;;;;;;8.67;6.00;;;;;18.08;43.16;101562.59;146641;569;44020;-74
2023/03/19 12:04:00;;;;;;;;;6.25;5.75;;;;;17.34;40.43;101414.88;146634;580;44909;-74
2023/03/19 12:07:37;;;;;;;;;10.00;10.00;;;;;16.34;42.16;101255.03;146637;694;44020;-73
2023/03/19 12:11:13;;;;;;;;;6.75;6.75;;;;;17.89;42.52;101551.44;146636;571;45902;-77
2023/03/19 12:15:11;;;;;;;;;8.00;7.33;;;;;17.87;43.69;101544.34;146632;614;45012;-77
2023/03/19 12:19:13;;;;;;;;;;;;;;;;;;;;;
2023/03/19 12:23:17;;;;;;;;;;;;;;;;;;;;;
2023/03/19 12:26:38;;;;;;;;;10.50;8.25;;;;;17.69;41.42;101531.47;146632;706;46911;-76
2023/03/19 12:30:05;;;;;;;;;8.00;8.00;;;;;16.54;44.08;101341.25;146639;607;44020;-74
2023/03/19 12:33:19;;;;;;;;;7.00;6.50;;;;;17.68;43.18;101535.81;146626;584;46911;-75
2023/03/19 12:36:40;;;;;;;;;9.33;7.00;;;;;16.39;40.08;101360.78;146625;574;45020;-76
2023/03/19 12:39:46;;;;;;;;;7.50;6.00;;;;;16.94;41.99;101529.59;146621;668;45911;-76
2023/03/19 12:42:49;;;;;;;;;8.00;7.67;;;;;16.55;41.04;101527.19;146625;609;45020;-77
2023/03/19 12:46:02;;;;;;;;;6.25;5.50;;;;;16.27;41.83;101519.97;146621;578;45913;-77
2023/03/19 12:49:35;;;;;;;;;6.67;4.00;;;;;15.96;43.28;101515.19;146626;645;45020;-75
2023/03/19 12:53:20;;;;;;;;;8.00;7.67;;;;;14.95;44.02;101347.09;146622;571;45912;-74
2023/03/19 12:56:57;;;;;;;;;7.33;6.00;;;;;15.93;42.91;101512.44;146612;635;45020;-78
2023/03/19 13:00:19;;;;;;;;;6.25;6.25;;;;;15.96;42.12;101504.72;146621;672;45018;-79
2023/03/19 13:03:44;;;;;;;;;7.50;6.50;;;;;16.02;41.25;101501.47;146624;706;45023;-77
2023/03/19 13:07:14;;;;;;;;;7.75;7.00;;;;;14.42;43.38;101204.66;146620;663;45908;-76
2023/03/19 13:10:42;;;;;;;;;6.50;5.50;;;;;16.24;42.25;101498.91;146625;597;46008;-76
2023/03/19 13:14:08;;;;;;;;;6.00;6.00;;;;;16.35;41.54;101496.69;146620;582;45039;-76
2023/03/19 13:18:04;;;;;;;;;7.25;7.25;;;;;14.63;43.25;101186.44;146622;651;45020;-77
2023/03/19 13:21:40;;;;;;;;;5.75;4.00;;;;;15.56;41.03;101333.09;146619;675;46911;-76
2023/03/19 13:24:47;;;;;;;;;7.00;6.00;;;;;16.44;41.00;101481.37;146623;622;45053;-78
2023/03/19 13:27:47;;;;;;;;;7.50;6.75;;;;;16.38;40.69;101484.63;146620;652;47012;-77
2023/03/19 13:31:24;;;;;;;;;8.50;7.00;;;;;16.33;43.47;101482.69;146610;700;45044;-76
2023/03/19 13:34:42;;;;;;;;;7.50;6.25;;;;;16.30;43.16;101488.69;146635;672;46914;-75
2023/03/19 13:37:47;;;;;;;;;9.25;5.75;;;;;16.29;41.00;101486.91;146638;707;45020;-77
2023/03/19 13:41:38;;;;;;;;;6.00;6.00;;;;;14.65;43.07;101183.94;146636;566;44915;-75
2023/03/19 13:45:46;;;;;;;;;6.50;4.75;;;;;15.51;40.56;101299.75;146639;645;44021;-76
2023/03/19 13:48:53;;;;;;;;;8.75;6.50;;;;;16.46;40.67;101478.81;146636;673;45914;-76
2023/03/19 13:52:50;;;;;;;;;6.00;6.00;;;;;14.58;41.53;101132.28;146638;601;45012;-77
2023/03/19 13:56:28;;;;;;;;;5.50;4.50;;;;;14.64;42.57;101129.91;146637;628;44912;-76
2023/03/19 13:59:49;;;;;;;;;9.00;7.50;;;;;16.61;41.77;101480.31;146637;641;44020;-75
2023/03/19 14:03:00;;;;;;;;;8.25;7.25;;;;;16.61;41.82;101477.69;146636;566;44912;-76
2023/03/19 14:06:04;;;;;;;;;6.00;6.00;;;;;16.55;39.84;101472.22;146634;685;45010;-77
2023/03/19 14:09:02;;;;;;;;;10.00;8.00;;;;;16.48;39.67;101467.59;146632;653;45912;-77
2023/03/19 14:12:14;;;;;;;;;8.00;7.00;;;;;16.39;40.05;101465.50;146638;576;44020;-79
2023/03/19 14:15:35;;;;;;;;;7.75;7.00;;;;;16.29;40.07;101460.75;146633;572;46912;-75
2023/03/19 14:18:43;;;;;;;;;9.00;8.00;;;;;16.23;40.86;101460.50;146639;572;44020;-77
2023/03/19 14:22:09;;;;;;;;;8.50;8.50;;;;;16.24;41.15;101464.88;146633;619;44891;-78
2023/03/19 14:25:25;;;;;;;;;6.25;6.00;;;;;16.31;43.60;101473.87;146639;579;44021;-77
2023/03/19 14:28:44;;;;;;;;;8.00;7.00;;;;;16.39;42.77;101467.22;146634;619;45912;-80
2023/03/19 14:32:11;;;;;;;;;8.00;6.50;;;;;16.47;43.30;101463.16;146636;564;44021;-79
2023/03/19 14:35:20;;;;;;;;;7.50;7.50;;;;;16.61;43.28;101467.22;146621;626;45016;-78
2023/03/19 14:38:58;;;;;;;;;9.75;8.00;;;;;14.62;42.87;101123.75;146611;580;45021;-84
2023/03/19 14:42:20;;;;;;;;;7.25;6.00;;;;;16.75;41.82;101461.59;146620;565;45911;-77
2023/03/19 14:45:52;;;;;;;;;9.00;8.25;;;;;16.83;43.35;101454.97;146618;660;46028;-80
2023/03/19 14:49:23;;;;;;;;;8.75;7.50;;;;;16.90;42.92;101459.59;146620;638;46012;-80
2023/03/19 14:52:49;;;;;;;;;8.00;8.00;;;;;15.15;43.86;101153.75;146622;619;45021;-76
2023/03/19 14:56:33;;;;;;;;;7.25;6.75;;;;;14.98;41.68;101121.72;146620;674;45911;-76
2023/03/19 14:59:27;;;;;;;;;9.75;8.25;;;;;16.84;42.12;101459.38;146613;574;46010;-75
2023/03/19 15:03:03;;;;;;;;;49.50;39.50;;;;;16.75;41.82;101459.00;146619;657;45024;-74
2023/03/19 15:06:27;;;;;;;;;28.75;25.50;;;;;14.73;41.50;101135.50;146616;599;45021;-76
2023/03/19 15:09:43;;;;;;;;;19.00;17.75;;;;;16.40;42.49;101461.16;146611;616;45912;-76
2023/03/19 15:13:17;;;;;;;;;9.50;9.50;;;;;14.38;44.00;101128.81;146612;602;45020;-75
2023/03/19 15:20:16;;;;;;;;;9.00;8.25;;;;;16.13;44.19;101464.44;146615;569;46020;-74
2023/03/19 15:23:13;;;;;;;;;8.75;7.00;;;;;16.17;45.20;101475.94;146620;741;45910;-76